Riverton, Nebraska
Current Conditions -  °F | °C
As of 6:15 AM on Thursday 29 Jan 2015 (Local Time) from KHDE Reporting Station
Overcast Overcast  
Wind Chill: 29°   Ceiling: 3300
Heat Index: 36°   Visibility: 10mi
Dew Point: 25°   Wind: 9mph
Humidity: 64%   Direction: 340°NNW
Pressure: 30.33"   Gusts: 16mph
Location:  40.09°N, 98.76°W
Report Text: KHDE 291215Z AUTO 34008G14KT 10SM OVC033 02/M04 A3033 RMK AO2 T00211041
Loading
Personal Weather Stations






























Interactive Weather Map New forecast layout! Learn more

10-Day Weather Forecast

Advertisements
Track Severe Weather on mobile